sensor_id;sensor_type;location;lat;lon;timestamp;P1;durP1;ratioP1;P2;durP2;ratioP2
4553;SDS011;2289;48.316;15.174;2023-04-21T00:01:12;10.43;;;8.50;;
4553;SDS011;2289;48.316;15.174;2023-04-21T00:03:43;8.40;;;7.00;;
4553;SDS011;2289;48.316;15.174;2023-04-21T00:06:13;10.00;;;7.47;;
4553;SDS011;2289;48.316;15.174;2023-04-21T00:08:48;8.60;;;6.80;;
4553;SDS011;2289;48.316;15.174;2023-04-21T00:11:17;7.60;;;6.67;;
4553;SDS011;2289;48.316;15.174;2023-04-21T00:13:46;8.73;;;6.70;;
4553;SDS011;2289;48.316;15.174;2023-04-21T00:16:15;7.90;;;6.80;;
4553;SDS011;2289;48.316;15.174;2023-04-21T00:18:45;6.70;;;6.00;;
4553;SDS011;2289;48.316;15.174;2023-04-21T00:21:14;8.90;;;7.63;;
4553;SDS011;2289;48.316;15.174;2023-04-21T00:23:43;11.07;;;7.20;;
4553;SDS011;2289;48.316;15.174;2023-04-21T00:26:13;9.87;;;7.43;;
4553;SDS011;2289;48.316;15.174;2023-04-21T00:28:41;10.43;;;8.93;;
4553;SDS011;2289;48.316;15.174;2023-04-21T00:31:10;11.93;;;9.23;;
4553;SDS011;2289;48.316;15.174;2023-04-21T00:33:39;11.20;;;7.83;;
4553;SDS011;2289;48.316;15.174;2023-04-21T00:36:09;10.57;;;9.03;;
4553;SDS011;2289;48.316;15.174;2023-04-21T00:38:37;11.00;;;8.00;;
4553;SDS011;2289;48.316;15.174;2023-04-21T00:41:06;10.23;;;8.30;;
4553;SDS011;2289;48.316;15.174;2023-04-21T00:43:35;12.90;;;8.70;;
4553;SDS011;2289;48.316;15.174;2023-04-21T00:46:04;9.17;;;7.50;;
4553;SDS011;2289;48.316;15.174;2023-04-21T00:48:33;8.90;;;6.97;;
4553;SDS011;2289;48.316;15.174;2023-04-21T00:51:02;9.27;;;8.37;;
4553;SDS011;2289;48.316;15.174;2023-04-21T00:53:32;10.00;;;8.17;;
4553;SDS011;2289;48.316;15.174;2023-04-21T00:56:01;11.33;;;8.93;;
4553;SDS011;2289;48.316;15.174;2023-04-21T00:58:30;9.20;;;8.23;;
4553;SDS011;2289;48.316;15.174;2023-04-21T01:00:59;10.07;;;8.30;;
4553;SDS011;2289;48.316;15.174;2023-04-21T01:03:28;10.63;;;8.40;;
4553;SDS011;2289;48.316;15.174;2023-04-21T01:05:58;11.30;;;8.47;;
4553;SDS011;2289;48.316;15.174;2023-04-21T01:08:27;9.33;;;8.17;;
4553;SDS011;2289;48.316;15.174;2023-04-21T01:10:57;16.03;;;8.43;;
4553;SDS011;2289;48.316;15.174;2023-04-21T01:13:25;9.30;;;8.33;;
4553;SDS011;2289;48.316;15.174;2023-04-21T01:15:54;8.60;;;7.70;;
4553;SDS011;2289;48.316;15.174;2023-04-21T01:18:23;11.73;;;8.40;;
4553;SDS011;2289;48.316;15.174;2023-04-21T01:20:52;12.20;;;8.80;;
4553;SDS011;2289;48.316;15.174;2023-04-21T01:23:22;9.70;;;8.80;;
4553;SDS011;2289;48.316;15.174;2023-04-21T01:25:51;11.90;;;8.63;;
4553;SDS011;2289;48.316;15.174;2023-04-21T01:28:21;10.33;;;7.90;;
4553;SDS011;2289;48.316;15.174;2023-04-21T01:30:50;11.60;;;9.00;;
4553;SDS011;2289;48.316;15.174;2023-04-21T01:33:19;10.20;;;8.60;;
4553;SDS011;2289;48.316;15.174;2023-04-21T01:35:48;9.70;;;7.67;;
4553;SDS011;2289;48.316;15.174;2023-04-21T01:38:17;8.83;;;7.67;;
4553;SDS011;2289;48.316;15.174;2023-04-21T01:40:48;11.00;;;8.90;;
4553;SDS011;2289;48.316;15.174;2023-04-21T01:43:23;9.03;;;8.13;;
4553;SDS011;2289;48.316;15.174;2023-04-21T01:45:52;10.90;;;7.80;;
4553;SDS011;2289;48.316;15.174;2023-04-21T01:48:21;13.57;;;9.23;;
4553;SDS011;2289;48.316;15.174;2023-04-21T01:50:49;8.60;;;7.20;;
4553;SDS011;2289;48.316;15.174;2023-04-21T01:53:20;8.80;;;6.30;;
4553;SDS011;2289;48.316;15.174;2023-04-21T01:55:50;13.83;;;8.40;;
4553;SDS011;2289;48.316;15.174;2023-04-21T01:58:19;9.30;;;7.27;;
4553;SDS011;2289;48.316;15.174;2023-04-21T02:00:48;8.87;;;7.67;;
4553;SDS011;2289;48.316;15.174;2023-04-21T02:03:16;11.90;;;8.40;;
4553;SDS011;2289;48.316;15.174;2023-04-21T02:05:45;7.93;;;7.10;;
4553;SDS011;2289;48.316;15.174;2023-04-21T02:08:14;8.30;;;7.47;;
4553;SDS011;2289;48.316;15.174;2023-04-21T02:10:44;13.97;;;8.20;;
4553;SDS011;2289;48.316;15.174;2023-04-21T02:13:14;8.20;;;7.40;;
4553;SDS011;2289;48.316;15.174;2023-04-21T02:15:43;11.67;;;8.37;;
4553;SDS011;2289;48.316;15.174;2023-04-21T02:18:12;8.87;;;7.90;;
4553;SDS011;2289;48.316;15.174;2023-04-21T02:20:42;10.67;;;8.30;;
4553;SDS011;2289;48.316;15.174;2023-04-21T02:23:11;9.90;;;7.43;;
4553;SDS011;2289;48.316;15.174;2023-04-21T02:25:39;10.80;;;7.47;;
4553;SDS011;2289;48.316;15.174;2023-04-21T02:28:08;10.50;;;8.33;;
4553;SDS011;2289;48.316;15.174;2023-04-21T02:30:43;7.50;;;5.93;;
4553;SDS011;2289;48.316;15.174;2023-04-21T02:33:11;10.47;;;7.60;;
4553;SDS011;2289;48.316;15.174;2023-04-21T02:35:40;8.47;;;6.87;;
4553;SDS011;2289;48.316;15.174;2023-04-21T02:38:09;9.87;;;8.03;;
4553;SDS011;2289;48.316;15.174;2023-04-21T02:40:38;7.93;;;7.00;;
4553;SDS011;2289;48.316;15.174;2023-04-21T02:43:08;9.00;;;7.47;;
4553;SDS011;2289;48.316;15.174;2023-04-21T02:45:38;7.90;;;6.97;;
4553;SDS011;2289;48.316;15.174;2023-04-21T02:48:09;8.83;;;6.67;;
4553;SDS011;2289;48.316;15.174;2023-04-21T02:50:38;7.10;;;6.40;;
4553;SDS011;2289;48.316;15.174;2023-04-21T02:53:07;8.33;;;7.43;;
4553;SDS011;2289;48.316;15.174;2023-04-21T02:55:36;8.10;;;6.53;;
4553;SDS011;2289;48.316;15.174;2023-04-21T02:58:04;9.10;;;6.83;;
4553;SDS011;2289;48.316;15.174;2023-04-21T03:00:33;7.67;;;6.53;;
4553;SDS011;2289;48.316;15.174;2023-04-21T03:03:04;9.30;;;7.80;;
4553;SDS011;2289;48.316;15.174;2023-04-21T03:05:34;11.30;;;8.40;;
4553;SDS011;2289;48.316;15.174;2023-04-21T03:08:03;14.07;;;8.10;;
4553;SDS011;2289;48.316;15.174;2023-04-21T03:10:32;10.63;;;8.10;;
4553;SDS011;2289;48.316;15.174;2023-04-21T03:13:01;8.90;;;6.83;;
4553;SDS011;2289;48.316;15.174;2023-04-21T03:15:30;9.70;;;7.57;;
4553;SDS011;2289;48.316;15.174;2023-04-21T03:17:58;9.47;;;8.30;;
4553;SDS011;2289;48.316;15.174;2023-04-21T03:20:27;9.17;;;7.30;;
4553;SDS011;2289;48.316;15.174;2023-04-21T03:22:57;11.63;;;7.97;;
4553;SDS011;2289;48.316;15.174;2023-04-21T03:25:26;12.50;;;6.80;;
4553;SDS011;2289;48.316;15.174;2023-04-21T03:27:55;8.37;;;7.37;;
4553;SDS011;2289;48.316;15.174;2023-04-21T03:30:24;8.27;;;5.80;;
4553;SDS011;2289;48.316;15.174;2023-04-21T03:32:53;7.37;;;5.63;;
4553;SDS011;2289;48.316;15.174;2023-04-21T03:35:22;6.63;;;5.70;;
4553;SDS011;2289;48.316;15.174;2023-04-21T03:37:50;10.50;;;8.20;;
4553;SDS011;2289;48.316;15.174;2023-04-21T03:40:21;9.67;;;7.87;;
4553;SDS011;2289;48.316;15.174;2023-04-21T03:42:49;10.10;;;7.63;;
4553;SDS011;2289;48.316;15.174;2023-04-21T03:45:18;8.10;;;7.13;;
4553;SDS011;2289;48.316;15.174;2023-04-21T03:47:51;15.80;;;7.17;;
4553;SDS011;2289;48.316;15.174;2023-04-21T03:50:20;8.80;;;7.07;;
4553;SDS011;2289;48.316;15.174;2023-04-21T03:52:49;12.30;;;7.27;;
4553;SDS011;2289;48.316;15.174;2023-04-21T03:55:18;10.80;;;7.43;;
4553;SDS011;2289;48.316;15.174;2023-04-21T03:57:48;10.20;;;7.20;;
4553;SDS011;2289;48.316;15.174;2023-04-21T04:00:17;11.13;;;7.57;;
4553;SDS011;2289;48.316;15.174;2023-04-21T04:02:47;7.27;;;5.77;;
4553;SDS011;2289;48.316;15.174;2023-04-21T04:05:16;7.97;;;6.07;;
4553;SDS011;2289;48.316;15.174;2023-04-21T04:07:45;14.13;;;8.27;;
4553;SDS011;2289;48.316;15.174;2023-04-21T04:10:14;8.63;;;7.10;;
4553;SDS011;2289;48.316;15.174;2023-04-21T04:12:42;7.30;;;6.43;;
4553;SDS011;2289;48.316;15.174;2023-04-21T04:15:12;8.20;;;6.97;;
4553;SDS011;2289;48.316;15.174;2023-04-21T04:17:42;11.23;;;7.70;;
4553;SDS011;2289;48.316;15.174;2023-04-21T04:20:11;8.93;;;6.80;;
4553;SDS011;2289;48.316;15.174;2023-04-21T04:22:39;7.03;;;6.20;;
4553;SDS011;2289;48.316;15.174;2023-04-21T04:25:08;10.63;;;7.60;;
4553;SDS011;2289;48.316;15.174;2023-04-21T04:27:38;8.67;;;6.77;;
4553;SDS011;2289;48.316;15.174;2023-04-21T04:30:08;6.60;;;5.80;;
4553;SDS011;2289;48.316;15.174;2023-04-21T04:32:38;8.47;;;6.93;;
4553;SDS011;2289;48.316;15.174;2023-04-21T04:35:08;9.93;;;7.30;;
4553;SDS011;2289;48.316;15.174;2023-04-21T04:37:38;8.73;;;6.67;;
4553;SDS011;2289;48.316;15.174;2023-04-21T04:40:08;9.53;;;7.17;;
4553;SDS011;2289;48.316;15.174;2023-04-21T04:42:37;7.63;;;6.83;;
4553;SDS011;2289;48.316;15.174;2023-04-21T04:45:06;9.47;;;6.37;;
4553;SDS011;2289;48.316;15.174;2023-04-21T04:47:43;7.20;;;6.00;;
4553;SDS011;2289;48.316;15.174;2023-04-21T04:50:12;7.53;;;6.60;;
4553;SDS011;2289;48.316;15.174;2023-04-21T04:52:41;9.77;;;6.43;;
4553;SDS011;2289;48.316;15.174;2023-04-21T04:55:12;10.63;;;6.50;;
4553;SDS011;2289;48.316;15.174;2023-04-21T04:57:41;7.33;;;6.03;;
4553;SDS011;2289;48.316;15.174;2023-04-21T05:00:10;7.43;;;6.67;;
4553;SDS011;2289;48.316;15.174;2023-04-21T05:02:41;8.53;;;7.07;;
4553;SDS011;2289;48.316;15.174;2023-04-21T05:05:11;9.70;;;6.73;;
4553;SDS011;2289;48.316;15.174;2023-04-21T05:07:39;11.73;;;7.00;;
4553;SDS011;2289;48.316;15.174;2023-04-21T05:10:08;7.53;;;6.83;;
4553;SDS011;2289;48.316;15.174;2023-04-21T05:12:37;8.50;;;6.50;;
4553;SDS011;2289;48.316;15.174;2023-04-21T05:15:06;11.50;;;6.73;;
4553;SDS011;2289;48.316;15.174;2023-04-21T05:17:36;8.60;;;7.03;;
4553;SDS011;2289;48.316;15.174;2023-04-21T05:20:07;7.97;;;6.17;;
4553;SDS011;2289;48.316;15.174;2023-04-21T05:22:36;8.23;;;7.07;;
4553;SDS011;2289;48.316;15.174;2023-04-21T05:25:06;10.50;;;8.63;;
4553;SDS011;2289;48.316;15.174;2023-04-21T05:27:35;13.83;;;8.30;;
4553;SDS011;2289;48.316;15.174;2023-04-21T05:30:04;9.23;;;8.20;;
4553;SDS011;2289;48.316;15.174;2023-04-21T05:32:33;13.33;;;8.43;;
4553;SDS011;2289;48.316;15.174;2023-04-21T05:35:02;10.33;;;8.20;;
4553;SDS011;2289;48.316;15.174;2023-04-21T05:37:32;9.40;;;7.70;;
4553;SDS011;2289;48.316;15.174;2023-04-21T05:40:00;13.00;;;8.77;;
4553;SDS011;2289;48.316;15.174;2023-04-21T05:42:29;14.33;;;8.07;;
4553;SDS011;2289;48.316;15.174;2023-04-21T05:44:58;14.57;;;10.07;;
4553;SDS011;2289;48.316;15.174;2023-04-21T05:47:27;13.50;;;9.27;;
4553;SDS011;2289;48.316;15.174;2023-04-21T05:49:55;10.07;;;8.73;;
4553;SDS011;2289;48.316;15.174;2023-04-21T05:52:24;11.60;;;8.60;;
4553;SDS011;2289;48.316;15.174;2023-04-21T05:54:54;10.90;;;8.30;;
4553;SDS011;2289;48.316;15.174;2023-04-21T05:57:23;12.13;;;8.40;;
4553;SDS011;2289;48.316;15.174;2023-04-21T05:59:51;9.73;;;7.40;;
4553;SDS011;2289;48.316;15.174;2023-04-21T06:02:20;10.57;;;7.83;;
4553;SDS011;2289;48.316;15.174;2023-04-21T06:04:49;14.07;;;8.20;;
4553;SDS011;2289;48.316;15.174;2023-04-21T06:07:19;14.50;;;11.17;;
4553;SDS011;2289;48.316;15.174;2023-04-21T06:09:48;13.80;;;10.77;;
4553;SDS011;2289;48.316;15.174;2023-04-21T06:12:19;18.80;;;10.93;;
4553;SDS011;2289;48.316;15.174;2023-04-21T06:14:48;14.70;;;10.53;;
4553;SDS011;2289;48.316;15.174;2023-04-21T06:17:16;13.00;;;11.10;;
4553;SDS011;2289;48.316;15.174;2023-04-21T06:19:46;16.50;;;11.97;;
4553;SDS011;2289;48.316;15.174;2023-04-21T06:22:19;10.60;;;8.07;;
4553;SDS011;2289;48.316;15.174;2023-04-21T06:24:48;15.43;;;10.10;;
4553;SDS011;2289;48.316;15.174;2023-04-21T06:27:17;9.50;;;7.50;;
4553;SDS011;2289;48.316;15.174;2023-04-21T06:29:47;9.60;;;8.30;;
4553;SDS011;2289;48.316;15.174;2023-04-21T06:32:16;10.40;;;9.23;;
4553;SDS011;2289;48.316;15.174;2023-04-21T06:34:44;12.73;;;9.93;;
4553;SDS011;2289;48.316;15.174;2023-04-21T06:37:13;12.70;;;9.47;;
4553;SDS011;2289;48.316;15.174;2023-04-21T06:39:42;16.83;;;9.40;;
4553;SDS011;2289;48.316;15.174;2023-04-21T06:42:11;9.30;;;7.67;;
4553;SDS011;2289;48.316;15.174;2023-04-21T06:44:40;10.17;;;9.03;;
4553;SDS011;2289;48.316;15.174;2023-04-21T06:47:10;12.20;;;9.30;;
4553;SDS011;2289;48.316;15.174;2023-04-21T06:49:39;13.67;;;9.60;;
4553;SDS011;2289;48.316;15.174;2023-04-21T06:52:07;13.40;;;9.23;;
4553;SDS011;2289;48.316;15.174;2023-04-21T06:54:37;15.80;;;8.70;;
4553;SDS011;2289;48.316;15.174;2023-04-21T06:57:07;9.80;;;8.47;;
4553;SDS011;2289;48.316;15.174;2023-04-21T06:59:36;9.53;;;8.60;;
4553;SDS011;2289;48.316;15.174;2023-04-21T07:02:04;12.17;;;9.50;;
4553;SDS011;2289;48.316;15.174;2023-04-21T07:04:35;9.10;;;8.10;;
4553;SDS011;2289;48.316;15.174;2023-04-21T07:07:03;10.90;;;9.40;;
4553;SDS011;2289;48.316;15.174;2023-04-21T07:09:32;10.03;;;7.67;;
4553;SDS011;2289;48.316;15.174;2023-04-21T07:12:01;8.93;;;8.03;;
4553;SDS011;2289;48.316;15.174;2023-04-21T07:14:30;10.43;;;7.00;;
4553;SDS011;2289;48.316;15.174;2023-04-21T07:16:59;10.30;;;8.40;;
4553;SDS011;2289;48.316;15.174;2023-04-21T07:19:28;7.50;;;6.80;;
4553;SDS011;2289;48.316;15.174;2023-04-21T07:22:01;9.30;;;7.80;;
4553;SDS011;2289;48.316;15.174;2023-04-21T07:24:30;11.83;;;7.87;;
4553;SDS011;2289;48.316;15.174;2023-04-21T07:27:01;8.43;;;7.53;;
4553;SDS011;2289;48.316;15.174;2023-04-21T07:29:30;10.33;;;8.53;;
4553;SDS011;2289;48.316;15.174;2023-04-21T07:32:03;11.97;;;9.30;;
4553;SDS011;2289;48.316;15.174;2023-04-21T07:34:32;14.97;;;11.43;;
4553;SDS011;2289;48.316;15.174;2023-04-21T07:37:02;11.23;;;8.77;;
4553;SDS011;2289;48.316;15.174;2023-04-21T07:39:31;9.27;;;8.27;;
4553;SDS011;2289;48.316;15.174;2023-04-21T07:42:00;13.10;;;9.63;;
4553;SDS011;2289;48.316;15.174;2023-04-21T07:44:29;8.80;;;7.93;;
4553;SDS011;2289;48.316;15.174;2023-04-21T07:46:58;8.80;;;7.90;;
4553;SDS011;2289;48.316;15.174;2023-04-21T07:49:27;9.30;;;7.10;;
4553;SDS011;2289;48.316;15.174;2023-04-21T07:51:56;11.80;;;7.97;;
4553;SDS011;2289;48.316;15.174;2023-04-21T07:54:26;12.47;;;8.27;;
4553;SDS011;2289;48.316;15.174;2023-04-21T07:56:57;12.30;;;8.50;;
4553;SDS011;2289;48.316;15.174;2023-04-21T07:59:27;10.07;;;8.33;;
4553;SDS011;2289;48.316;15.174;2023-04-21T08:01:56;7.20;;;6.40;;
4553;SDS011;2289;48.316;15.174;2023-04-21T08:04:25;7.93;;;6.83;;
4553;SDS011;2289;48.316;15.174;2023-04-21T08:06:54;9.27;;;7.30;;
4553;SDS011;2289;48.316;15.174;2023-04-21T08:09:24;8.93;;;6.60;;
4553;SDS011;2289;48.316;15.174;2023-04-21T08:11:54;9.00;;;7.87;;
4553;SDS011;2289;48.316;15.174;2023-04-21T08:14:25;8.23;;;7.20;;
4553;SDS011;2289;48.316;15.174;2023-04-21T08:16:54;7.30;;;6.33;;
4553;SDS011;2289;48.316;15.174;2023-04-21T08:19:23;9.70;;;7.10;;
4553;SDS011;2289;48.316;15.174;2023-04-21T08:21:51;12.67;;;7.80;;
4553;SDS011;2289;48.316;15.174;2023-04-21T08:24:20;9.30;;;8.03;;
4553;SDS011;2289;48.316;15.174;2023-04-21T08:26:49;15.27;;;7.60;;
4553;SDS011;2289;48.316;15.174;2023-04-21T08:29:20;7.70;;;6.40;;
4553;SDS011;2289;48.316;15.174;2023-04-21T08:31:49;8.20;;;6.83;;
4553;SDS011;2289;48.316;15.174;2023-04-21T08:34:18;7.50;;;6.57;;
4553;SDS011;2289;48.316;15.174;2023-04-21T08:36:50;7.33;;;6.47;;
4553;SDS011;2289;48.316;15.174;2023-04-21T08:39:19;8.33;;;6.90;;
4553;SDS011;2289;48.316;15.174;2023-04-21T08:41:48;8.20;;;7.37;;
4553;SDS011;2289;48.316;15.174;2023-04-21T08:44:20;10.53;;;6.73;;
4553;SDS011;2289;48.316;15.174;2023-04-21T08:46:49;9.50;;;7.43;;
4553;SDS011;2289;48.316;15.174;2023-04-21T08:49:19;7.20;;;5.90;;
4553;SDS011;2289;48.316;15.174;2023-04-21T08:51:48;6.97;;;6.10;;
4553;SDS011;2289;48.316;15.174;2023-04-21T08:54:17;6.00;;;5.50;;
4553;SDS011;2289;48.316;15.174;2023-04-21T08:56:46;6.90;;;6.20;;
4553;SDS011;2289;48.316;15.174;2023-04-21T08:59:15;10.00;;;6.30;;
4553;SDS011;2289;48.316;15.174;2023-04-21T09:04:37;10.00;;;7.07;;
4553;SDS011;2289;48.316;15.174;2023-04-21T09:07:07;10.87;;;7.07;;
4553;SDS011;2289;48.316;15.174;2023-04-21T09:12:22;8.53;;;7.67;;
4553;SDS011;2289;48.316;15.174;2023-04-21T09:14:51;8.27;;;6.87;;
4553;SDS011;2289;48.316;15.174;2023-04-21T09:17:21;8.17;;;6.90;;
4553;SDS011;2289;48.316;15.174;2023-04-21T09:19:51;9.37;;;6.33;;
4553;SDS011;2289;48.316;15.174;2023-04-21T09:22:20;9.90;;;5.70;;
4553;SDS011;2289;48.316;15.174;2023-04-21T09:24:56;9.97;;;6.43;;
4553;SDS011;2289;48.316;15.174;2023-04-21T09:27:26;10.10;;;6.17;;
4553;SDS011;2289;48.316;15.174;2023-04-21T09:29:56;9.10;;;6.90;;
4553;SDS011;2289;48.316;15.174;2023-04-21T09:32:36;12.60;;;7.87;;
4553;SDS011;2289;48.316;15.174;2023-04-21T09:35:05;9.33;;;7.00;;
4553;SDS011;2289;48.316;15.174;2023-04-21T09:37:37;7.50;;;6.60;;
4553;SDS011;2289;48.316;15.174;2023-04-21T09:40:11;11.47;;;7.00;;
4553;SDS011;2289;48.316;15.174;2023-04-21T09:42:41;10.03;;;7.33;;
4553;SDS011;2289;48.316;15.174;2023-04-21T09:45:10;6.50;;;5.90;;
4553;SDS011;2289;48.316;15.174;2023-04-21T09:47:45;7.13;;;6.50;;
4553;SDS011;2289;48.316;15.174;2023-04-21T09:50:17;9.67;;;7.27;;
4553;SDS011;2289;48.316;15.174;2023-04-21T09:53:09;7.13;;;6.00;;
4553;SDS011;2289;48.316;15.174;2023-04-21T09:55:42;5.03;;;4.53;;
4553;SDS011;2289;48.316;15.174;2023-04-21T09:58:15;6.87;;;5.20;;
4553;SDS011;2289;48.316;15.174;2023-04-21T10:00:47;9.00;;;6.83;;
4553;SDS011;2289;48.316;15.174;2023-04-21T10:03:17;5.60;;;5.10;;
4553;SDS011;2289;48.316;15.174;2023-04-21T10:05:48;5.90;;;5.00;;
4553;SDS011;2289;48.316;15.174;2023-04-21T10:08:17;9.50;;;5.20;;
4553;SDS011;2289;48.316;15.174;2023-04-21T10:10:46;6.17;;;4.00;;
4553;SDS011;2289;48.316;15.174;2023-04-21T10:13:16;4.97;;;4.57;;
4553;SDS011;2289;48.316;15.174;2023-04-21T10:15:45;5.10;;;4.53;;
4553;SDS011;2289;48.316;15.174;2023-04-21T10:18:14;7.80;;;5.13;;
4553;SDS011;2289;48.316;15.174;2023-04-21T10:20:52;7.30;;;5.60;;
4553;SDS011;2289;48.316;15.174;2023-04-21T10:23:29;10.40;;;6.30;;
4553;SDS011;2289;48.316;15.174;2023-04-21T10:26:07;14.10;;;5.53;;
4553;SDS011;2289;48.316;15.174;2023-04-21T10:28:53;5.90;;;4.80;;
4553;SDS011;2289;48.316;15.174;2023-04-21T10:31:31;4.00;;;3.70;;
4553;SDS011;2289;48.316;15.174;2023-04-21T10:34:16;6.20;;;4.30;;
4553;SDS011;2289;48.316;15.174;2023-04-21T10:39:43;4.87;;;4.03;;
4553;SDS011;2289;48.316;15.174;2023-04-21T10:42:17;7.80;;;3.93;;
4553;SDS011;2289;48.316;15.174;2023-04-21T10:45:05;4.90;;;4.13;;
4553;SDS011;2289;48.316;15.174;2023-04-21T10:47:40;4.60;;;4.20;;
4553;SDS011;2289;48.316;15.174;2023-04-21T10:50:11;7.30;;;5.70;;
4553;SDS011;2289;48.316;15.174;2023-04-21T10:52:50;5.80;;;4.33;;
4553;SDS011;2289;48.316;15.174;2023-04-21T10:55:21;6.40;;;3.70;;
4553;SDS011;2289;48.316;15.174;2023-04-21T10:57:49;5.33;;;4.83;;
4553;SDS011;2289;48.316;15.174;2023-04-21T11:00:19;6.10;;;4.37;;
4553;SDS011;2289;48.316;15.174;2023-04-21T11:02:58;9.23;;;4.37;;
4553;SDS011;2289;48.316;15.174;2023-04-21T11:05:32;5.80;;;4.20;;
4553;SDS011;2289;48.316;15.174;2023-04-21T11:08:08;5.27;;;4.30;;
4553;SDS011;2289;48.316;15.174;2023-04-21T11:10:42;10.00;;;4.97;;
4553;SDS011;2289;48.316;15.174;2023-04-21T11:13:12;6.40;;;4.53;;
4553;SDS011;2289;48.316;15.174;2023-04-21T11:15:54;8.20;;;5.10;;
4553;SDS011;2289;48.316;15.174;2023-04-21T11:18:31;5.60;;;4.27;;
4553;SDS011;2289;48.316;15.174;2023-04-21T11:21:13;13.73;;;5.10;;
4553;SDS011;2289;48.316;15.174;2023-04-21T11:23:49;15.10;;;5.00;;
4553;SDS011;2289;48.316;15.174;2023-04-21T11:26:28;6.57;;;4.90;;
4553;SDS011;2289;48.316;15.174;2023-04-21T11:29:01;5.60;;;4.50;;
4553;SDS011;2289;48.316;15.174;2023-04-21T11:31:31;8.57;;;5.13;;
4553;SDS011;2289;48.316;15.174;2023-04-21T11:34:01;11.70;;;5.53;;
4553;SDS011;2289;48.316;15.174;2023-04-21T11:36:31;5.77;;;4.50;;
4553;SDS011;2289;48.316;15.174;2023-04-21T11:39:08;9.20;;;5.37;;
4553;SDS011;2289;48.316;15.174;2023-04-21T11:41:38;9.30;;;5.07;;
4553;SDS011;2289;48.316;15.174;2023-04-21T11:44:07;6.90;;;4.80;;
4553;SDS011;2289;48.316;15.174;2023-04-21T11:46:37;6.10;;;4.57;;
4553;SDS011;2289;48.316;15.174;2023-04-21T11:49:13;5.60;;;4.77;;
4553;SDS011;2289;48.316;15.174;2023-04-21T11:51:43;10.70;;;5.50;;
4553;SDS011;2289;48.316;15.174;2023-04-21T11:54:16;6.03;;;4.40;;
4553;SDS011;2289;48.316;15.174;2023-04-21T11:56:47;10.37;;;5.97;;
4553;SDS011;2289;48.316;15.174;2023-04-21T11:59:26;8.17;;;3.90;;
4553;SDS011;2289;48.316;15.174;2023-04-21T12:01:55;8.97;;;5.20;;
4553;SDS011;2289;48.316;15.174;2023-04-21T12:04:24;12.13;;;5.70;;
4553;SDS011;2289;48.316;15.174;2023-04-21T12:06:57;6.67;;;4.47;;
4553;SDS011;2289;48.316;15.174;2023-04-21T12:09:31;10.10;;;4.90;;
4553;SDS011;2289;48.316;15.174;2023-04-21T12:12:03;10.53;;;5.13;;
4553;SDS011;2289;48.316;15.174;2023-04-21T12:14:34;9.13;;;4.90;;
4553;SDS011;2289;48.316;15.174;2023-04-21T12:17:05;8.20;;;4.90;;
4553;SDS011;2289;48.316;15.174;2023-04-21T12:19:35;9.63;;;5.00;;
4553;SDS011;2289;48.316;15.174;2023-04-21T12:22:06;7.80;;;4.27;;
4553;SDS011;2289;48.316;15.174;2023-04-21T12:24:37;16.37;;;5.40;;
4553;SDS011;2289;48.316;15.174;2023-04-21T12:27:06;10.43;;;6.17;;
4553;SDS011;2289;48.316;15.174;2023-04-21T12:29:35;12.70;;;4.10;;
4553;SDS011;2289;48.316;15.174;2023-04-21T12:32:05;11.80;;;4.80;;
4553;SDS011;2289;48.316;15.174;2023-04-21T12:34:34;12.77;;;4.73;;
4553;SDS011;2289;48.316;15.174;2023-04-21T12:37:03;7.60;;;4.20;;
4553;SDS011;2289;48.316;15.174;2023-04-21T12:39:32;19.33;;;6.50;;
4553;SDS011;2289;48.316;15.174;2023-04-21T12:42:02;10.17;;;4.07;;
4553;SDS011;2289;48.316;15.174;2023-04-21T12:44:32;7.23;;;4.03;;
4553;SDS011;2289;48.316;15.174;2023-04-21T12:47:01;5.70;;;4.33;;
4553;SDS011;2289;48.316;15.174;2023-04-21T12:49:30;5.57;;;3.40;;
4553;SDS011;2289;48.316;15.174;2023-04-21T12:51:59;7.03;;;3.70;;
4553;SDS011;2289;48.316;15.174;2023-04-21T12:54:31;10.80;;;4.67;;
4553;SDS011;2289;48.316;15.174;2023-04-21T12:57:00;11.97;;;4.20;;
4553;SDS011;2289;48.316;15.174;2023-04-21T12:59:32;8.47;;;6.83;;
4553;SDS011;2289;48.316;15.174;2023-04-21T13:02:00;13.30;;;6.40;;
4553;SDS011;2289;48.316;15.174;2023-04-21T13:04:30;12.80;;;4.30;;
4553;SDS011;2289;48.316;15.174;2023-04-21T13:07:00;5.77;;;3.63;;
4553;SDS011;2289;48.316;15.174;2023-04-21T13:09:29;7.43;;;4.20;;
4553;SDS011;2289;48.316;15.174;2023-04-21T13:11:58;15.53;;;3.70;;
4553;SDS011;2289;48.316;15.174;2023-04-21T13:14:29;10.33;;;4.53;;
4553;SDS011;2289;48.316;15.174;2023-04-21T13:16:58;6.77;;;4.17;;
4553;SDS011;2289;48.316;15.174;2023-04-21T13:19:27;8.70;;;6.40;;
4553;SDS011;2289;48.316;15.174;2023-04-21T13:21:57;10.20;;;5.03;;
4553;SDS011;2289;48.316;15.174;2023-04-21T13:24:26;9.03;;;4.30;;
4553;SDS011;2289;48.316;15.174;2023-04-21T13:26:55;6.33;;;4.50;;
4553;SDS011;2289;48.316;15.174;2023-04-21T13:29:24;6.13;;;4.00;;
4553;SDS011;2289;48.316;15.174;2023-04-21T13:31:57;8.93;;;4.53;;
4553;SDS011;2289;48.316;15.174;2023-04-21T13:34:26;8.37;;;3.60;;
4553;SDS011;2289;48.316;15.174;2023-04-21T13:36:58;5.83;;;4.80;;
4553;SDS011;2289;48.316;15.174;2023-04-21T13:39:26;6.93;;;3.37;;
4553;SDS011;2289;48.316;15.174;2023-04-21T13:41:56;8.27;;;3.80;;
4553;SDS011;2289;48.316;15.174;2023-04-21T13:44:24;11.03;;;3.43;;
4553;SDS011;2289;48.316;15.174;2023-04-21T13:46:53;6.57;;;4.20;;
4553;SDS011;2289;48.316;15.174;2023-04-21T13:49:24;11.53;;;3.97;;
4553;SDS011;2289;48.316;15.174;2023-04-21T13:51:54;7.20;;;4.27;;
4553;SDS011;2289;48.316;15.174;2023-04-21T13:54:23;3.60;;;3.30;;
4553;SDS011;2289;48.316;15.174;2023-04-21T13:56:53;11.70;;;4.20;;
4553;SDS011;2289;48.316;15.174;2023-04-21T13:59:22;14.20;;;4.43;;
4553;SDS011;2289;48.316;15.174;2023-04-21T14:01:51;5.03;;;3.87;;
4553;SDS011;2289;48.316;15.174;2023-04-21T14:04:20;13.70;;;4.87;;
4553;SDS011;2289;48.316;15.174;2023-04-21T14:06:51;6.20;;;3.50;;
4553;SDS011;2289;48.316;15.174;2023-04-21T14:09:19;7.63;;;4.13;;
4553;SDS011;2289;48.316;15.174;2023-04-21T14:11:48;11.67;;;8.40;;
4553;SDS011;2289;48.316;15.174;2023-04-21T14:14:17;13.60;;;4.30;;
4553;SDS011;2289;48.316;15.174;2023-04-21T14:17:04;3.60;;;3.30;;
4553;SDS011;2289;48.316;15.174;2023-04-21T14:19:33;4.40;;;3.43;;
4553;SDS011;2289;48.316;15.174;2023-04-21T14:22:04;8.87;;;4.07;;
4553;SDS011;2289;48.316;15.174;2023-04-21T14:24:32;8.50;;;3.93;;
4553;SDS011;2289;48.316;15.174;2023-04-21T14:27:01;5.60;;;3.53;;
4553;SDS011;2289;48.316;15.174;2023-04-21T14:29:30;6.87;;;3.40;;
4553;SDS011;2289;48.316;15.174;2023-04-21T14:31:59;7.73;;;4.47;;
4553;SDS011;2289;48.316;15.174;2023-04-21T14:34:28;10.03;;;4.87;;
4553;SDS011;2289;48.316;15.174;2023-04-21T14:36:57;16.30;;;4.77;;
4553;SDS011;2289;48.316;15.174;2023-04-21T14:39:27;7.40;;;5.23;;
4553;SDS011;2289;48.316;15.174;2023-04-21T14:41:56;8.67;;;4.80;;
4553;SDS011;2289;48.316;15.174;2023-04-21T14:44:25;7.40;;;4.40;;
4553;SDS011;2289;48.316;15.174;2023-04-21T14:46:54;7.63;;;4.63;;
4553;SDS011;2289;48.316;15.174;2023-04-21T14:49:36;16.67;;;4.83;;
4553;SDS011;2289;48.316;15.174;2023-04-21T14:52:05;12.53;;;4.73;;
4553;SDS011;2289;48.316;15.174;2023-04-21T14:54:36;10.40;;;4.27;;
4553;SDS011;2289;48.316;15.174;2023-04-21T14:57:05;7.20;;;3.80;;
4553;SDS011;2289;48.316;15.174;2023-04-21T14:59:47;6.50;;;3.43;;
4553;SDS011;2289;48.316;15.174;2023-04-21T15:02:16;6.57;;;4.67;;
4553;SDS011;2289;48.316;15.174;2023-04-21T15:04:46;8.47;;;4.67;;
4553;SDS011;2289;48.316;15.174;2023-04-21T15:07:15;11.57;;;6.63;;
4553;SDS011;2289;48.316;15.174;2023-04-21T15:09:52;5.60;;;4.20;;
4553;SDS011;2289;48.316;15.174;2023-04-21T15:12:21;6.30;;;4.10;;
4553;SDS011;2289;48.316;15.174;2023-04-21T15:14:50;6.70;;;4.00;;
4553;SDS011;2289;48.316;15.174;2023-04-21T15:17:19;8.83;;;4.57;;
4553;SDS011;2289;48.316;15.174;2023-04-21T15:19:48;5.43;;;3.60;;
4553;SDS011;2289;48.316;15.174;2023-04-21T15:22:17;6.57;;;4.33;;